Karan — A8NB3 — position and weather

sailwx.info

Track history (hours):
 
Tides and Currents Weather Stations Pressure Air Temp Water Temp Dewpoint Dewpoint Depression Visibility Wind Speed Wind Dir Waves Ship Positions

Karan

Last reported at 2016-Dec-28 15:09 UTC. Time now 2017-Jan-25 01:26 UTC.
Position S 29°19' E 032°33'.
Warning: this ship's position is 27 days out of date.

Length 333 m; draft 22 m.

Type: Ship (hazmat cat B). MMSI: 636013451.

Date/timePositionNaut miles runAvg speedWind from/ knotsBaromVisibWave heightAir tempDewpointWater temp
2016-Dec-28 15:09S 29°19' E 032°33'2012.1
2016-Dec-28 13:29S 29°28' E 032°11'1211.6
2016-Dec-28 12:29S 29°32' E 031°59'1011.1
2016-Dec-28 11:34S 29°37' E 031°49'1211.7
2016-Dec-28 10:34S 29°41' E 031°36'1313.2
2016-Dec-28 09:33S 29°47' E 031°22'10 9.9
2016-Dec-28 08:34S 29°51' E 031°12'2 2.5
2016-Dec-28 07:34S 29°53' E 031°10'4 4.4
2016-Dec-28 06:34S 29°56' E 031°13'2 2.1
2016-Dec-28 05:34S 29°57' E 031°11'2 2.2
2016-Dec-28 04:34S 29°59' E 031°10'7 6.8
2016-Dec-28 03:34S 30°06' E 031°08'1010.3
2016-Dec-28 02:34S 30°16' E 031°05'3 3.2
2016-Dec-28 01:34S 30°14' E 031°08'9 9.1
2016-Dec-28 00:33S 30°23' E 031°08'9 8.9
2016-Dec-27 23:34S 30°32' E 031°08'20 8.2
2016-Dec-27 21:06S 30°51' E 030°60'  
Track history (hours):
 
Tides and Currents Weather Stations Pressure Air Temp Water Temp Dewpoint Dewpoint Depression Visibility Wind Speed Wind Dir Waves Ship Positions

Karan

Last reported at 2016-Dec-28 15:09 UTC. Time now 2017-Jan-25 01:26 UTC.
Position S 29°19' E 032°33'.
Warning: this ship's position is 27 days out of date.

Length 333 m; draft 22 m.

Type: Ship (hazmat cat B). MMSI: 636013451.

Date/timePositionNaut miles runAvg speedWind from/ knotsBaromVisibWave heightAir tempDewpointWater temp
2016-Dec-28 15:09S 29°19' E 032°33'2012.1
2016-Dec-28 13:29S 29°28' E 032°11'1211.6
2016-Dec-28 12:29S 29°32' E 031°59'1011.1
2016-Dec-28 11:34S 29°37' E 031°49'1211.7
2016-Dec-28 10:34S 29°41' E 031°36'1313.2
2016-Dec-28 09:33S 29°47' E 031°22'10 9.9
2016-Dec-28 08:34S 29°51' E 031°12'2 2.5
2016-Dec-28 07:34S 29°53' E 031°10'4 4.4
2016-Dec-28 06:34S 29°56' E 031°13'2 2.1
2016-Dec-28 05:34S 29°57' E 031°11'2 2.2
2016-Dec-28 04:34S 29°59' E 031°10'7 6.8
2016-Dec-28 03:34S 30°06' E 031°08'1010.3
2016-Dec-28 02:34S 30°16' E 031°05'3 3.2
2016-Dec-28 01:34S 30°14' E 031°08'9 9.1
2016-Dec-28 00:33S 30°23' E 031°08'9 8.9
2016-Dec-27 23:34S 30°32' E 031°08'20 8.2
2016-Dec-27 21:06S 30°51' E 030°60'  

Dump ship's entire track history